• Join FlightAware (Why Join?)
  • Login
  • US Flag 
05:34AM EST


 

Airport Tracker/Info


-or-


 

Live Flight TrackerFlight Track Log ✈ EGF4218 ✈ 02-Jun-2013 ✈ KORD - KTUL

Flight Track Log - Related Links

Times and Time Zones

All times are in EDT time to prevent confusion due to time zone crossing. See the EGF4218 flight status page for this flight to view local times or setup timezone preferences in your user account.

Time Position Orientation Groundspeed Altitude Reporting Facility
EDT Latitude Longitude Course Direction KTS MPH feet Rate Location/Type
10:55AM 41.9500 -87.9000 194° South 171 197 1,400  Level Chicago TRACON
10:56AM 41.8833 -87.9000 180° South 223 257 3,500 2,040 Climbing Chicago TRACON
10:57AM 41.7899 -88.2077 203° Southwest  Level Estimated
10:57AM 41.8333 -87.9500 217° Southwest 236 272 5,500  Level Chicago TRACON
10:57AM 41.8267 -87.9572 219° Southwest 234 269 5,700 1,920 Climbing Chicago Center
10:58AM 41.7016 -88.1498 154° Southeast  Level FlightAware Approximate
10:58AM 41.7606 -87.9933 202° Southwest 257 296 8,000  Level Chicago Center
10:59AM 41.6384 -88.2506 197° South  Level Estimated
10:59AM 41.6731 -88.0375 201° Southwest 281 323 10,400  Level Chicago Center
11:00AM 41.5752 -88.3513 194° South  Level Estimated
11:00AM 41.5981 -88.0783 202° Southwest 294 338 12,000  Level Chicago Center
11:01AM 41.5169 -88.1219 202° Southwest 318 366 13,500 1,380 Climbing Chicago Center
11:02AM 41.4333 -88.1650 201° Southwest 332 382 14,900 1,500 Climbing Chicago Center
11:03AM 41.3275 -88.2161 200° South 348 400 16,600 1,500 Climbing Chicago Center
11:04AM 41.2378 -88.2569 199° South 347 399 18,000 1,320 Climbing Chicago Center
11:05AM 41.1481 -88.2972 199° South 345 397 19,400 1,380 Climbing Chicago Center
11:06AM 41.0575 -88.3392 199° South 348 400 20,900 1,380 Climbing Chicago Center
11:07AM 40.9650 -88.3797 198° South 352 405 22,300 1,560 Climbing Chicago Center
11:08AM 40.8556 -88.4289 199° South 349 402 24,100 1,380 Climbing Chicago Center
11:09AM 40.7636 -88.4689 198° South 350 403 25,200 960 Climbing Chicago Center
11:10AM 40.6678 -88.5114 199° South 360 414 26,100 900 Climbing Chicago Center
11:11AM 40.5711 -88.5533 198° South 367 422 27,100 960 Climbing Chicago Center
11:13AM 40.3644 -88.6453 199° South 368 423 29,100 960 Climbing Chicago Center
11:14AM 40.2842 -88.7231 216° Southwest 356 410 30,100 900 Climbing Chicago Center
11:15AM 40.2219 -88.8267 232° Southwest 360 414 31,000 840 Climbing Chicago Center
11:16AM 40.1603 -88.9308 232° Southwest 360 414 31,900 480 Climbing Chicago Center
11:17AM 40.0942 -89.0428 232° Southwest 376 433 32,000  Climbing Chicago Center
11:18AM 40.0397 -89.1336 232° Southwest 388 447 32,000  Level Kansas City Center
11:19AM 39.9706 -89.2486 232° Southwest 398 458 32,000  Level Kansas City Center
11:20AM 39.9011 -89.3639 232° Southwest 402 463 32,000  Level Kansas City Center
11:21AM 39.8194 -89.5003 232° Southwest 399 459 32,000  Level Kansas City Center
11:22AM 39.7503 -89.6139 232° Southwest 399 459 32,000  Level Kansas City Center
11:23AM 39.6900 -89.7128 232° Southwest 397 457 32,000  Level Kansas City Center
11:24AM 39.6089 -89.8458 232° Southwest 394 453 32,000  Level Kansas City Center
11:25AM 39.5403 -89.9575 231° Southwest 396 456 32,000  Level Kansas City Center
11:26AM 39.4725 -90.0683 232° Southwest 395 455 32,000  Level Kansas City Center
11:27AM 39.4042 -90.1800 232° Southwest 396 456 32,000  Level Kansas City Center
11:28AM 39.3356 -90.2919 232° Southwest 399 459 32,000  Level Kansas City Center
11:30AM 39.2661 -90.4028 231° Southwest 399 459 32,000  Level Kansas City Center
11:31AM 39.1836 -90.5367 232° Southwest 400 460 32,000  Level Kansas City Center
11:32AM 39.1139 -90.6472 231° Southwest 402 463 32,000  Level Kansas City Center
11:33AM 39.0461 -90.7569 232° Southwest 396 456 32,000  Level Kansas City Center
11:34AM 38.9756 -90.8678 231° Southwest 402 463 32,000  Level Kansas City Center
11:35AM 38.9042 -90.9814 231° Southwest 408 470 32,000  Level Kansas City Center
11:36AM 38.8233 -91.1197 233° Southwest 407 468 32,000  Level Kansas City Center
11:37AM 38.7614 -91.2444 238° Southwest 413 475 32,000  Level Kansas City Center
11:38AM 38.7000 -91.3686 238° Southwest 415 478 32,000  Level Kansas City Center
11:39AM 38.6414 -91.4894 238° Southwest 409 471 32,000  Level Kansas City Center
11:40AM 38.5792 -91.6128 237° Southwest 409 471 32,000  Level Kansas City Center
11:41AM 38.5042 -91.7611 237° Southwest 412 474 32,000  Level Kansas City Center
11:42AM 38.4419 -91.8842 237° Southwest 412 474 32,000  Level Kansas City Center
11:43AM 38.3794 -92.0069 237° Southwest 413 475 32,000  Level Kansas City Center
11:44AM 38.3161 -92.1325 237° Southwest 419 482 32,000  Level Kansas City Center
11:45AM 38.2536 -92.2550 237° Southwest 420 483 32,000  Level Kansas City Center
11:46AM 38.1911 -92.3775 237° Southwest 417 480 32,000  Level Kansas City Center
11:47AM 38.1147 -92.5267 237° Southwest 425 489 32,000  Level Kansas City Center
11:48AM 38.0486 -92.6489 236° Southwest 424 488 32,000  Level Kansas City Center
11:49AM 37.9878 -92.7689 237° Southwest 417 480 32,000  Level Kansas City Center
11:50AM 37.9242 -92.8906 236° Southwest 414 476 32,000  Level Kansas City Center
11:51AM 37.8600 -93.0128 236° Southwest 416 479 32,000  Level Kansas City Center
11:52AM 37.7856 -93.1583 237° Southwest 412 474 32,000  Level Kansas City Center
11:53AM 37.7217 -93.2792 236° Southwest 413 475 32,000  Level Kansas City Center
11:54AM 37.6575 -93.4014 236° Southwest 415 478 32,000  Level Kansas City Center
11:55AM 37.5900 -93.5211 235° Southwest 417 480 32,000  Level Kansas City Center
11:56AM 37.5258 -93.6433 237° Southwest 417 480 32,000  Level Kansas City Center
11:57AM 37.4614 -93.7650 236° Southwest 417 480 32,000 -240 Level Kansas City Center
11:58AM 37.3953 -93.8858 235° Southwest 417 480 31,600 -960 Descending Kansas City Center
11:59AM 37.3286 -94.0103 236° Southwest 425 489 30,100 -1,500 Descending Kansas City Center
12:00PM 37.2561 -94.1453 236° Southwest 422 486 28,500 -1,500 Descending Kansas City Center
12:02PM 37.1906 -94.2675 236° Southwest 421 484 27,000 -1,500 Descending Kansas City Center
12:03PM 37.1228 -94.3922 236° Southwest 428 493 25,500 -1,500 Descending Kansas City Center
12:04PM 37.0389 -94.5461 236° Southwest 442 509 24,000 -780 Descending Kansas City Center
12:05PM 36.9692 -94.6717 235° Southwest 441 507 24,000 -600 Level Kansas City Center
12:06PM 36.9033 -94.7961 237° Southwest 432 497 22,800 -1,620 Descending Kansas City Center
12:07PM 36.8372 -94.9139 235° Southwest 419 482 20,700 -2,040 Descending Kansas City Center
12:08PM 36.7722 -95.0317 235° Southwest 415 478 18,700 -1,860 Descending Kansas City Center
12:09PM 36.7058 -95.1503 235° Southwest 415 478 16,900 -2,040 Descending Kansas City Center
12:09PM 36.6564 -95.2378 235° Southwest 402 463 15,300 -1,980 Descending Kansas City Center
12:10PM 36.6400 -95.2583 225° Southwest 398 458 14,900 -1,980 Descending Kansas City Center
12:11PM 36.5369 -95.3792 223° Southwest 382 440 12,300 -2,100 Descending Kansas City Center
12:12PM 36.4719 -95.4575 224° Southwest 379 436 10,600 -1,200 Descending Kansas City Center
12:13PM 36.4008 -95.5292 219° Southwest 364 419 10,000 -1,080 Descending Kansas City Center
12:14PM 36.3208 -95.5494 192° South 307 353 8,400 -2,280 Descending Kansas City Center
12:15PM 36.2325 -95.5742 193° South 279 321 5,400 -2,460 Descending Kansas City Center
12:16PM 36.1658 -95.6044 200° South 270 311 3,400 -1,980 Descending Kansas City Center